sensor_id;sensor_type;location;lat;lon;timestamp;P1;durP1;ratioP1;P2;durP2;ratioP2
52674;SDS011;38569;52.722;6.440;2023-04-10T00:00:40;59.75;;;38.10;;
52674;SDS011;38569;52.722;6.440;2023-04-10T00:03:07;61.65;;;38.42;;
52674;SDS011;38569;52.722;6.440;2023-04-10T00:05:33;60.80;;;41.65;;
52674;SDS011;38569;52.722;6.440;2023-04-10T00:07:58;62.20;;;41.08;;
52674;SDS011;38569;52.722;6.440;2023-04-10T00:10:24;59.78;;;41.85;;
52674;SDS011;38569;52.722;6.440;2023-04-10T00:12:50;59.25;;;39.67;;
52674;SDS011;38569;52.722;6.440;2023-04-10T00:15:18;61.47;;;39.38;;
52674;SDS011;38569;52.722;6.440;2023-04-10T00:17:43;63.53;;;43.38;;
52674;SDS011;38569;52.722;6.440;2023-04-10T00:20:09;61.92;;;41.15;;
52674;SDS011;38569;52.722;6.440;2023-04-10T00:22:35;61.30;;;41.40;;
52674;SDS011;38569;52.722;6.440;2023-04-10T00:25:01;59.45;;;39.90;;
52674;SDS011;38569;52.722;6.440;2023-04-10T00:27:27;65.75;;;43.10;;
52674;SDS011;38569;52.722;6.440;2023-04-10T00:29:52;58.63;;;40.75;;
52674;SDS011;38569;52.722;6.440;2023-04-10T00:32:18;61.42;;;41.35;;
52674;SDS011;38569;52.722;6.440;2023-04-10T00:34:44;65.78;;;42.10;;
52674;SDS011;38569;52.722;6.440;2023-04-10T00:37:10;63.25;;;43.50;;
52674;SDS011;38569;52.722;6.440;2023-04-10T00:39:36;63.85;;;42.00;;
52674;SDS011;38569;52.722;6.440;2023-04-10T00:42:01;58.47;;;41.38;;
52674;SDS011;38569;52.722;6.440;2023-04-10T00:44:28;68.65;;;42.88;;
52674;SDS011;38569;52.722;6.440;2023-04-10T00:46:53;65.35;;;43.50;;
52674;SDS011;38569;52.722;6.440;2023-04-10T00:49:19;67.40;;;44.03;;
52674;SDS011;38569;52.722;6.440;2023-04-10T00:51:45;62.22;;;43.70;;
52674;SDS011;38569;52.722;6.440;2023-04-10T00:54:11;63.17;;;43.42;;
52674;SDS011;38569;52.722;6.440;2023-04-10T00:56:38;61.95;;;40.80;;
52674;SDS011;38569;52.722;6.440;2023-04-10T00:59:04;61.05;;;42.47;;
52674;SDS011;38569;52.722;6.440;2023-04-10T01:01:30;62.95;;;41.50;;
52674;SDS011;38569;52.722;6.440;2023-04-10T01:03:55;66.40;;;43.55;;
52674;SDS011;38569;52.722;6.440;2023-04-10T01:12:03;65.15;;;43.40;;
52674;SDS011;38569;52.722;6.440;2023-04-10T01:14:30;65.35;;;42.28;;
52674;SDS011;38569;52.722;6.440;2023-04-10T01:17:06;67.60;;;47.28;;
52674;SDS011;38569;52.722;6.440;2023-04-10T01:22:16;71.40;;;44.28;;
52674;SDS011;38569;52.722;6.440;2023-04-10T01:24:52;67.47;;;46.78;;
52674;SDS011;38569;52.722;6.440;2023-04-10T01:30:52;66.07;;;45.72;;
52674;SDS011;38569;52.722;6.440;2023-04-10T01:33:25;71.57;;;48.47;;
52674;SDS011;38569;52.722;6.440;2023-04-10T01:36:17;70.38;;;48.85;;
52674;SDS011;38569;52.722;6.440;2023-04-10T01:38:47;73.40;;;49.00;;
52674;SDS011;38569;52.722;6.440;2023-04-10T01:41:15;68.57;;;47.88;;
52674;SDS011;38569;52.722;6.440;2023-04-10T01:43:42;71.60;;;48.63;;
52674;SDS011;38569;52.722;6.440;2023-04-10T01:46:13;72.05;;;50.65;;
52674;SDS011;38569;52.722;6.440;2023-04-10T01:48:40;71.10;;;48.97;;
52674;SDS011;38569;52.722;6.440;2023-04-10T01:51:07;76.40;;;49.92;;
52674;SDS011;38569;52.722;6.440;2023-04-10T01:53:35;72.75;;;50.17;;
52674;SDS011;38569;52.722;6.440;2023-04-10T01:56:01;74.25;;;51.53;;
52674;SDS011;38569;52.722;6.440;2023-04-10T01:58:27;72.57;;;48.00;;
52674;SDS011;38569;52.722;6.440;2023-04-10T02:00:53;74.65;;;50.13;;
52674;SDS011;38569;52.722;6.440;2023-04-10T02:03:18;75.60;;;50.38;;
52674;SDS011;38569;52.722;6.440;2023-04-10T02:05:51;78.70;;;51.05;;
52674;SDS011;38569;52.722;6.440;2023-04-10T02:08:35;75.25;;;49.95;;
52674;SDS011;38569;52.722;6.440;2023-04-10T02:11:30;78.82;;;51.88;;
52674;SDS011;38569;52.722;6.440;2023-04-10T02:14:17;78.47;;;52.05;;
52674;SDS011;38569;52.722;6.440;2023-04-10T02:16:45;79.22;;;51.40;;
52674;SDS011;38569;52.722;6.440;2023-04-10T02:19:13;81.32;;;51.15;;
52674;SDS011;38569;52.722;6.440;2023-04-10T02:21:40;81.28;;;51.75;;
52674;SDS011;38569;52.722;6.440;2023-04-10T02:24:06;72.25;;;49.47;;
52674;SDS011;38569;52.722;6.440;2023-04-10T02:26:48;76.35;;;50.08;;
52674;SDS011;38569;52.722;6.440;2023-04-10T02:29:16;82.65;;;52.45;;
52674;SDS011;38569;52.722;6.440;2023-04-10T02:31:42;72.88;;;50.13;;
52674;SDS011;38569;52.722;6.440;2023-04-10T02:34:09;75.50;;;48.53;;
52674;SDS011;38569;52.722;6.440;2023-04-10T02:36:36;80.53;;;49.83;;
52674;SDS011;38569;52.722;6.440;2023-04-10T02:39:03;71.35;;;48.03;;
52674;SDS011;38569;52.722;6.440;2023-04-10T02:41:29;71.15;;;47.90;;
52674;SDS011;38569;52.722;6.440;2023-04-10T02:43:55;70.40;;;46.47;;
52674;SDS011;38569;52.722;6.440;2023-04-10T02:46:20;68.70;;;46.33;;
52674;SDS011;38569;52.722;6.440;2023-04-10T02:48:46;66.15;;;45.20;;
52674;SDS011;38569;52.722;6.440;2023-04-10T02:51:12;64.93;;;45.38;;
52674;SDS011;38569;52.722;6.440;2023-04-10T02:53:38;64.18;;;45.70;;
52674;SDS011;38569;52.722;6.440;2023-04-10T02:56:04;67.47;;;46.38;;
52674;SDS011;38569;52.722;6.440;2023-04-10T02:58:33;61.47;;;41.83;;
52674;SDS011;38569;52.722;6.440;2023-04-10T03:01:00;65.25;;;45.45;;
52674;SDS011;38569;52.722;6.440;2023-04-10T03:03:26;64.60;;;43.03;;
52674;SDS011;38569;52.722;6.440;2023-04-10T03:05:52;61.65;;;43.17;;
52674;SDS011;38569;52.722;6.440;2023-04-10T03:08:17;65.28;;;42.88;;
52674;SDS011;38569;52.722;6.440;2023-04-10T03:10:43;62.70;;;42.22;;
52674;SDS011;38569;52.722;6.440;2023-04-10T03:13:10;62.72;;;44.08;;
52674;SDS011;38569;52.722;6.440;2023-04-10T03:15:36;62.60;;;44.67;;
52674;SDS011;38569;52.722;6.440;2023-04-10T03:18:03;60.25;;;42.25;;
52674;SDS011;38569;52.722;6.440;2023-04-10T03:20:30;69.45;;;47.50;;
52674;SDS011;38569;52.722;6.440;2023-04-10T03:22:57;62.55;;;44.38;;
52674;SDS011;38569;52.722;6.440;2023-04-10T03:25:23;67.97;;;46.30;;
52674;SDS011;38569;52.722;6.440;2023-04-10T03:27:49;64.80;;;44.83;;
52674;SDS011;38569;52.722;6.440;2023-04-10T03:30:15;61.95;;;42.45;;
52674;SDS011;38569;52.722;6.440;2023-04-10T03:32:41;64.20;;;42.72;;
52674;SDS011;38569;52.722;6.440;2023-04-10T03:35:07;65.70;;;44.67;;
52674;SDS011;38569;52.722;6.440;2023-04-10T03:37:34;62.40;;;42.97;;
52674;SDS011;38569;52.722;6.440;2023-04-10T03:40:00;61.22;;;43.22;;
52674;SDS011;38569;52.722;6.440;2023-04-10T03:42:26;63.35;;;45.38;;
52674;SDS011;38569;52.722;6.440;2023-04-10T03:44:52;64.47;;;44.33;;
52674;SDS011;38569;52.722;6.440;2023-04-10T03:47:17;65.05;;;44.22;;
52674;SDS011;38569;52.722;6.440;2023-04-10T03:49:43;64.82;;;45.55;;
52674;SDS011;38569;52.722;6.440;2023-04-10T03:52:09;66.78;;;44.13;;
52674;SDS011;38569;52.722;6.440;2023-04-10T03:54:35;60.78;;;44.17;;
52674;SDS011;38569;52.722;6.440;2023-04-10T03:57:00;59.55;;;43.67;;
52674;SDS011;38569;52.722;6.440;2023-04-10T03:59:26;64.35;;;45.20;;
52674;SDS011;38569;52.722;6.440;2023-04-10T04:01:51;63.63;;;44.20;;
52674;SDS011;38569;52.722;6.440;2023-04-10T04:04:17;61.88;;;42.65;;
52674;SDS011;38569;52.722;6.440;2023-04-10T04:06:43;63.22;;;42.55;;
52674;SDS011;38569;52.722;6.440;2023-04-10T04:09:09;58.25;;;41.10;;
52674;SDS011;38569;52.722;6.440;2023-04-10T04:11:34;63.15;;;43.85;;
52674;SDS011;38569;52.722;6.440;2023-04-10T04:14:02;63.75;;;43.08;;
52674;SDS011;38569;52.722;6.440;2023-04-10T04:16:28;64.32;;;42.42;;
52674;SDS011;38569;52.722;6.440;2023-04-10T04:18:53;63.60;;;44.17;;
52674;SDS011;38569;52.722;6.440;2023-04-10T04:21:19;63.38;;;44.35;;
52674;SDS011;38569;52.722;6.440;2023-04-10T04:23:45;66.88;;;44.38;;
52674;SDS011;38569;52.722;6.440;2023-04-10T04:26:10;61.22;;;41.55;;
52674;SDS011;38569;52.722;6.440;2023-04-10T04:28:36;63.40;;;41.97;;
52674;SDS011;38569;52.722;6.440;2023-04-10T04:31:02;61.47;;;42.05;;
52674;SDS011;38569;52.722;6.440;2023-04-10T04:33:27;63.70;;;42.60;;
52674;SDS011;38569;52.722;6.440;2023-04-10T04:35:53;66.30;;;44.65;;
52674;SDS011;38569;52.722;6.440;2023-04-10T04:38:20;64.45;;;42.78;;
52674;SDS011;38569;52.722;6.440;2023-04-10T04:40:45;60.42;;;42.78;;
52674;SDS011;38569;52.722;6.440;2023-04-10T04:43:11;62.33;;;40.97;;
52674;SDS011;38569;52.722;6.440;2023-04-10T04:45:37;63.03;;;41.17;;
52674;SDS011;38569;52.722;6.440;2023-04-10T04:48:02;58.85;;;41.92;;
52674;SDS011;38569;52.722;6.440;2023-04-10T04:50:28;59.58;;;43.42;;
52674;SDS011;38569;52.722;6.440;2023-04-10T04:52:54;59.58;;;39.15;;
52674;SDS011;38569;52.722;6.440;2023-04-10T04:55:19;56.50;;;37.53;;
52674;SDS011;38569;52.722;6.440;2023-04-10T04:57:45;60.92;;;41.78;;
52674;SDS011;38569;52.722;6.440;2023-04-10T05:00:11;58.72;;;39.10;;
52674;SDS011;38569;52.722;6.440;2023-04-10T05:02:37;54.38;;;38.20;;
52674;SDS011;38569;52.722;6.440;2023-04-10T05:05:02;54.97;;;36.83;;
52674;SDS011;38569;52.722;6.440;2023-04-10T05:07:28;54.60;;;39.53;;
52674;SDS011;38569;52.722;6.440;2023-04-10T05:09:55;52.55;;;36.78;;
52674;SDS011;38569;52.722;6.440;2023-04-10T05:12:20;54.45;;;36.38;;
52674;SDS011;38569;52.722;6.440;2023-04-10T05:14:46;57.55;;;39.03;;
52674;SDS011;38569;52.722;6.440;2023-04-10T05:17:12;52.78;;;36.15;;
52674;SDS011;38569;52.722;6.440;2023-04-10T05:19:39;52.47;;;35.65;;
52674;SDS011;38569;52.722;6.440;2023-04-10T05:22:04;52.58;;;36.70;;
52674;SDS011;38569;52.722;6.440;2023-04-10T05:24:30;49.75;;;34.13;;
52674;SDS011;38569;52.722;6.440;2023-04-10T05:26:56;51.80;;;33.90;;
52674;SDS011;38569;52.722;6.440;2023-04-10T05:29:21;49.55;;;34.53;;
52674;SDS011;38569;52.722;6.440;2023-04-10T05:31:48;50.45;;;35.15;;
52674;SDS011;38569;52.722;6.440;2023-04-10T05:34:15;53.10;;;33.42;;
52674;SDS011;38569;52.722;6.440;2023-04-10T05:36:41;51.20;;;35.13;;
52674;SDS011;38569;52.722;6.440;2023-04-10T05:39:13;51.30;;;34.55;;
52674;SDS011;38569;52.722;6.440;2023-04-10T05:41:39;49.10;;;34.00;;
52674;SDS011;38569;52.722;6.440;2023-04-10T05:44:05;50.33;;;34.58;;
52674;SDS011;38569;52.722;6.440;2023-04-10T05:46:31;49.42;;;34.05;;
52674;SDS011;38569;52.722;6.440;2023-04-10T05:48:57;50.35;;;33.65;;
52674;SDS011;38569;52.722;6.440;2023-04-10T05:51:22;48.17;;;33.63;;
52674;SDS011;38569;52.722;6.440;2023-04-10T05:53:49;51.00;;;35.53;;
52674;SDS011;38569;52.722;6.440;2023-04-10T05:56:14;50.42;;;35.55;;
52674;SDS011;38569;52.722;6.440;2023-04-10T05:58:40;50.75;;;35.25;;
52674;SDS011;38569;52.722;6.440;2023-04-10T06:01:06;49.72;;;35.50;;
52674;SDS011;38569;52.722;6.440;2023-04-10T06:03:32;48.92;;;36.40;;
52674;SDS011;38569;52.722;6.440;2023-04-10T06:05:58;51.47;;;36.83;;
52674;SDS011;38569;52.722;6.440;2023-04-10T06:08:26;54.13;;;38.22;;
52674;SDS011;38569;52.722;6.440;2023-04-10T06:10:52;55.28;;;38.75;;
52674;SDS011;38569;52.722;6.440;2023-04-10T06:13:17;51.30;;;36.92;;
52674;SDS011;38569;52.722;6.440;2023-04-10T06:15:43;55.72;;;38.70;;
52674;SDS011;38569;52.722;6.440;2023-04-10T06:18:09;56.83;;;39.70;;
52674;SDS011;38569;52.722;6.440;2023-04-10T06:20:35;55.25;;;36.88;;
52674;SDS011;38569;52.722;6.440;2023-04-10T06:23:01;53.58;;;37.20;;
52674;SDS011;38569;52.722;6.440;2023-04-10T06:25:27;56.17;;;33.97;;
52674;SDS011;38569;52.722;6.440;2023-04-10T06:27:53;59.47;;;38.80;;
52674;SDS011;38569;52.722;6.440;2023-04-10T06:30:18;62.63;;;42.40;;
52674;SDS011;38569;52.722;6.440;2023-04-10T06:32:44;61.97;;;43.28;;
52674;SDS011;38569;52.722;6.440;2023-04-10T06:35:10;65.28;;;43.70;;
52674;SDS011;38569;52.722;6.440;2023-04-10T06:37:36;59.83;;;42.67;;
52674;SDS011;38569;52.722;6.440;2023-04-10T06:42:31;58.78;;;41.28;;
52674;SDS011;38569;52.722;6.440;2023-04-10T06:44:57;57.80;;;40.30;;
52674;SDS011;38569;52.722;6.440;2023-04-10T06:47:23;53.13;;;37.80;;
52674;SDS011;38569;52.722;6.440;2023-04-10T06:49:48;62.35;;;41.45;;
52674;SDS011;38569;52.722;6.440;2023-04-10T06:52:15;53.55;;;39.15;;
52674;SDS011;38569;52.722;6.440;2023-04-10T06:54:41;63.55;;;39.55;;
52674;SDS011;38569;52.722;6.440;2023-04-10T06:57:07;58.72;;;38.70;;
52674;SDS011;38569;52.722;6.440;2023-04-10T06:59:32;53.42;;;38.95;;
52674;SDS011;38569;52.722;6.440;2023-04-10T07:01:59;58.85;;;38.30;;
52674;SDS011;38569;52.722;6.440;2023-04-10T07:04:26;57.08;;;38.40;;
52674;SDS011;38569;52.722;6.440;2023-04-10T07:06:52;53.90;;;38.33;;
52674;SDS011;38569;52.722;6.440;2023-04-10T07:09:18;51.58;;;37.05;;
52674;SDS011;38569;52.722;6.440;2023-04-10T07:11:44;50.88;;;33.95;;
52674;SDS011;38569;52.722;6.440;2023-04-10T07:14:10;54.45;;;35.65;;
52674;SDS011;38569;52.722;6.440;2023-04-10T07:16:35;53.83;;;35.42;;
52674;SDS011;38569;52.722;6.440;2023-04-10T07:19:01;52.45;;;34.95;;
52674;SDS011;38569;52.722;6.440;2023-04-10T07:21:27;43.55;;;31.60;;
52674;SDS011;38569;52.722;6.440;2023-04-10T07:23:53;47.22;;;33.90;;
52674;SDS011;38569;52.722;6.440;2023-04-10T07:26:19;46.05;;;31.30;;
52674;SDS011;38569;52.722;6.440;2023-04-10T07:28:45;56.17;;;33.53;;
52674;SDS011;38569;52.722;6.440;2023-04-10T07:31:11;45.88;;;31.05;;
52674;SDS011;38569;52.722;6.440;2023-04-10T07:33:37;42.95;;;30.33;;
52674;SDS011;38569;52.722;6.440;2023-04-10T07:36:03;41.08;;;28.73;;
52674;SDS011;38569;52.722;6.440;2023-04-10T07:38:33;38.00;;;27.33;;
52674;SDS011;38569;52.722;6.440;2023-04-10T07:40:59;41.20;;;29.52;;
52674;SDS011;38569;52.722;6.440;2023-04-10T07:43:25;46.55;;;29.00;;
52674;SDS011;38569;52.722;6.440;2023-04-10T07:45:50;41.50;;;28.35;;
52674;SDS011;38569;52.722;6.440;2023-04-10T07:48:16;37.95;;;25.60;;
52674;SDS011;38569;52.722;6.440;2023-04-10T07:50:43;36.42;;;27.13;;
52674;SDS011;38569;52.722;6.440;2023-04-10T07:53:08;40.40;;;27.42;;
52674;SDS011;38569;52.722;6.440;2023-04-10T07:55:38;37.08;;;24.98;;
52674;SDS011;38569;52.722;6.440;2023-04-10T07:58:04;32.70;;;24.52;;
52674;SDS011;38569;52.722;6.440;2023-04-10T08:00:31;38.20;;;24.75;;
52674;SDS011;38569;52.722;6.440;2023-04-10T08:02:57;37.92;;;25.13;;
52674;SDS011;38569;52.722;6.440;2023-04-10T08:05:22;37.72;;;26.25;;
52674;SDS011;38569;52.722;6.440;2023-04-10T08:07:48;38.10;;;24.42;;
52674;SDS011;38569;52.722;6.440;2023-04-10T08:10:14;33.22;;;21.92;;
52674;SDS011;38569;52.722;6.440;2023-04-10T08:12:40;32.22;;;21.92;;
52674;SDS011;38569;52.722;6.440;2023-04-10T08:15:06;27.10;;;20.27;;
52674;SDS011;38569;52.722;6.440;2023-04-10T08:17:32;21.95;;;17.65;;
52674;SDS011;38569;52.722;6.440;2023-04-10T08:19:57;27.33;;;17.75;;
52674;SDS011;38569;52.722;6.440;2023-04-10T08:22:23;23.00;;;17.23;;
52674;SDS011;38569;52.722;6.440;2023-04-10T08:24:49;24.13;;;16.42;;
52674;SDS011;38569;52.722;6.440;2023-04-10T08:27:14;23.15;;;16.25;;
52674;SDS011;38569;52.722;6.440;2023-04-10T08:29:41;20.25;;;16.17;;
52674;SDS011;38569;52.722;6.440;2023-04-10T08:32:07;21.75;;;15.98;;
52674;SDS011;38569;52.722;6.440;2023-04-10T08:34:33;19.50;;;15.48;;
52674;SDS011;38569;52.722;6.440;2023-04-10T08:36:58;20.25;;;14.20;;
52674;SDS011;38569;52.722;6.440;2023-04-10T08:39:24;15.52;;;13.18;;
52674;SDS011;38569;52.722;6.440;2023-04-10T08:41:50;18.08;;;13.18;;
52674;SDS011;38569;52.722;6.440;2023-04-10T08:44:15;18.95;;;12.70;;
52674;SDS011;38569;52.722;6.440;2023-04-10T08:46:43;18.67;;;13.73;;
52674;SDS011;38569;52.722;6.440;2023-04-10T08:49:10;15.85;;;12.25;;
52674;SDS011;38569;52.722;6.440;2023-04-10T08:51:48;13.10;;;11.15;;
52674;SDS011;38569;52.722;6.440;2023-04-10T08:54:28;16.42;;;13.15;;
52674;SDS011;38569;52.722;6.440;2023-04-10T08:56:56;16.25;;;12.45;;
52674;SDS011;38569;52.722;6.440;2023-04-10T08:59:24;15.82;;;13.13;;
52674;SDS011;38569;52.722;6.440;2023-04-10T09:01:53;16.52;;;12.48;;
52674;SDS011;38569;52.722;6.440;2023-04-10T09:04:20;15.32;;;11.52;;
52674;SDS011;38569;52.722;6.440;2023-04-10T09:06:46;14.93;;;11.48;;
52674;SDS011;38569;52.722;6.440;2023-04-10T09:09:12;13.57;;;11.40;;
52674;SDS011;38569;52.722;6.440;2023-04-10T09:14:30;17.58;;;11.50;;
52674;SDS011;38569;52.722;6.440;2023-04-10T09:17:14;14.20;;;10.93;;
52674;SDS011;38569;52.722;6.440;2023-04-10T09:19:42;18.63;;;11.82;;
52674;SDS011;38569;52.722;6.440;2023-04-10T09:22:11;13.70;;;10.90;;
52674;SDS011;38569;52.722;6.440;2023-04-10T09:24:38;15.25;;;12.38;;
52674;SDS011;38569;52.722;6.440;2023-04-10T09:27:06;13.20;;;10.63;;
52674;SDS011;38569;52.722;6.440;2023-04-10T09:32:06;14.05;;;10.05;;
52674;SDS011;38569;52.722;6.440;2023-04-10T09:34:32;11.93;;;10.18;;
52674;SDS011;38569;52.722;6.440;2023-04-10T09:36:58;11.60;;;9.60;;
52674;SDS011;38569;52.722;6.440;2023-04-10T09:39:34;14.30;;;10.43;;
52674;SDS011;38569;52.722;6.440;2023-04-10T09:42:02;11.10;;;9.90;;
52674;SDS011;38569;52.722;6.440;2023-04-10T09:44:29;12.48;;;10.13;;
52674;SDS011;38569;52.722;6.440;2023-04-10T09:47:19;11.77;;;9.32;;
52674;SDS011;38569;52.722;6.440;2023-04-10T09:49:49;14.18;;;10.43;;
52674;SDS011;38569;52.722;6.440;2023-04-10T09:52:23;13.90;;;10.68;;
52674;SDS011;38569;52.722;6.440;2023-04-10T09:54:53;13.32;;;9.85;;
52674;SDS011;38569;52.722;6.440;2023-04-10T09:57:23;11.77;;;8.25;;
52674;SDS011;38569;52.722;6.440;2023-04-10T09:59:54;14.07;;;8.13;;
52674;SDS011;38569;52.722;6.440;2023-04-10T10:02:22;11.43;;;8.38;;
52674;SDS011;38569;52.722;6.440;2023-04-10T10:04:49;10.77;;;9.18;;
52674;SDS011;38569;52.722;6.440;2023-04-10T10:07:16;11.10;;;8.18;;
52674;SDS011;38569;52.722;6.440;2023-04-10T10:09:44;8.50;;;7.43;;
52674;SDS011;38569;52.722;6.440;2023-04-10T10:12:12;9.43;;;7.95;;
52674;SDS011;38569;52.722;6.440;2023-04-10T10:14:59;8.85;;;7.47;;
52674;SDS011;38569;52.722;6.440;2023-04-10T10:17:33;13.75;;;9.00;;
52674;SDS011;38569;52.722;6.440;2023-04-10T10:20:04;9.10;;;7.75;;
52674;SDS011;38569;52.722;6.440;2023-04-10T10:22:33;14.20;;;7.90;;
52674;SDS011;38569;52.722;6.440;2023-04-10T10:25:01;12.70;;;7.43;;
52674;SDS011;38569;52.722;6.440;2023-04-10T10:27:27;9.43;;;6.93;;
52674;SDS011;38569;52.722;6.440;2023-04-10T10:29:58;10.10;;;8.05;;
52674;SDS011;38569;52.722;6.440;2023-04-10T10:32:25;8.43;;;7.38;;
52674;SDS011;38569;52.722;6.440;2023-04-10T10:34:52;8.98;;;6.22;;
52674;SDS011;38569;52.722;6.440;2023-04-10T10:37:21;9.00;;;6.97;;
52674;SDS011;38569;52.722;6.440;2023-04-10T10:42:24;7.55;;;5.95;;
52674;SDS011;38569;52.722;6.440;2023-04-10T10:45:08;7.43;;;6.22;;
52674;SDS011;38569;52.722;6.440;2023-04-10T10:47:56;7.68;;;5.50;;
52674;SDS011;38569;52.722;6.440;2023-04-10T10:50:21;8.15;;;6.15;;
52674;SDS011;38569;52.722;6.440;2023-04-10T10:52:51;8.63;;;6.22;;
52674;SDS011;38569;52.722;6.440;2023-04-10T10:55:26;9.93;;;5.97;;
52674;SDS011;38569;52.722;6.440;2023-04-10T10:57:59;9.27;;;5.32;;
52674;SDS011;38569;52.722;6.440;2023-04-10T11:01:03;8.32;;;5.55;;
52674;SDS011;38569;52.722;6.440;2023-04-10T11:05:56;6.82;;;5.15;;
52674;SDS011;38569;52.722;6.440;2023-04-10T11:16:23;7.65;;;5.63;;
52674;SDS011;38569;52.722;6.440;2023-04-10T11:19:06;7.15;;;5.05;;
52674;SDS011;38569;52.722;6.440;2023-04-10T11:21:33;7.53;;;5.47;;
52674;SDS011;38569;52.722;6.440;2023-04-10T11:31:30;6.57;;;4.82;;
52674;SDS011;38569;52.722;6.440;2023-04-10T11:34:00;8.20;;;5.60;;
52674;SDS011;38569;52.722;6.440;2023-04-10T11:36:27;8.15;;;5.90;;
52674;SDS011;38569;52.722;6.440;2023-04-10T11:38:55;8.90;;;5.22;;
52674;SDS011;38569;52.722;6.440;2023-04-10T11:41:24;6.10;;;4.82;;
52674;SDS011;38569;52.722;6.440;2023-04-10T11:43:58;6.90;;;5.30;;
52674;SDS011;38569;52.722;6.440;2023-04-10T11:46:25;8.50;;;5.63;;
52674;SDS011;38569;52.722;6.440;2023-04-10T11:48:56;8.38;;;5.32;;
52674;SDS011;38569;52.722;6.440;2023-04-10T11:51:23;7.88;;;5.60;;
52674;SDS011;38569;52.722;6.440;2023-04-10T11:54:02;6.40;;;5.70;;
52674;SDS011;38569;52.722;6.440;2023-04-10T11:56:30;16.02;;;6.72;;
52674;SDS011;38569;52.722;6.440;2023-04-10T11:58:56;6.05;;;5.18;;
52674;SDS011;38569;52.722;6.440;2023-04-10T12:01:22;7.40;;;5.63;;
52674;SDS011;38569;52.722;6.440;2023-04-10T12:03:47;8.27;;;5.40;;
52674;SDS011;38569;52.722;6.440;2023-04-10T12:06:13;7.13;;;5.25;;
52674;SDS011;38569;52.722;6.440;2023-04-10T12:08:43;6.93;;;6.13;;
52674;SDS011;38569;52.722;6.440;2023-04-10T12:11:11;7.07;;;5.38;;
52674;SDS011;38569;52.722;6.440;2023-04-10T12:13:38;8.05;;;5.63;;
52674;SDS011;38569;52.722;6.440;2023-04-10T12:16:07;8.15;;;5.68;;
52674;SDS011;38569;52.722;6.440;2023-04-10T12:18:34;8.98;;;5.50;;
52674;SDS011;38569;52.722;6.440;2023-04-10T12:21:00;6.85;;;5.78;;
52674;SDS011;38569;52.722;6.440;2023-04-10T12:23:27;7.97;;;5.20;;
52674;SDS011;38569;52.722;6.440;2023-04-10T12:28:32;5.85;;;5.25;;
52674;SDS011;38569;52.722;6.440;2023-04-10T12:30:58;9.40;;;4.80;;
52674;SDS011;38569;52.722;6.440;2023-04-10T12:33:24;5.55;;;4.80;;
52674;SDS011;38569;52.722;6.440;2023-04-10T12:35:50;7.28;;;5.65;;
52674;SDS011;38569;52.722;6.440;2023-04-10T12:41:10;9.43;;;5.72;;
52674;SDS011;38569;52.722;6.440;2023-04-10T12:43:40;8.18;;;6.03;;
52674;SDS011;38569;52.722;6.440;2023-04-10T12:46:07;5.78;;;4.93;;
52674;SDS011;38569;52.722;6.440;2023-04-10T12:48:34;6.22;;;4.85;;
52674;SDS011;38569;52.722;6.440;2023-04-10T12:51:00;7.05;;;5.00;;
52674;SDS011;38569;52.722;6.440;2023-04-10T12:53:27;6.43;;;4.88;;
52674;SDS011;38569;52.722;6.440;2023-04-10T12:56:03;6.30;;;4.70;;
52674;SDS011;38569;52.722;6.440;2023-04-10T12:58:30;5.80;;;4.85;;
52674;SDS011;38569;52.722;6.440;2023-04-10T13:00:57;6.05;;;4.65;;
52674;SDS011;38569;52.722;6.440;2023-04-10T13:03:26;7.10;;;4.55;;
52674;SDS011;38569;52.722;6.440;2023-04-10T13:05:52;9.45;;;4.70;;
52674;SDS011;38569;52.722;6.440;2023-04-10T13:08:18;5.70;;;4.97;;
52674;SDS011;38569;52.722;6.440;2023-04-10T13:10:45;5.95;;;4.43;;
52674;SDS011;38569;52.722;6.440;2023-04-10T13:13:11;6.13;;;5.43;;
52674;SDS011;38569;52.722;6.440;2023-04-10T13:15:37;5.28;;;4.72;;
52674;SDS011;38569;52.722;6.440;2023-04-10T13:18:04;10.55;;;5.70;;
52674;SDS011;38569;52.722;6.440;2023-04-10T13:20:31;7.55;;;4.47;;
52674;SDS011;38569;52.722;6.440;2023-04-10T13:23:01;6.45;;;4.97;;
52674;SDS011;38569;52.722;6.440;2023-04-10T13:25:29;7.80;;;5.13;;
52674;SDS011;38569;52.722;6.440;2023-04-10T13:28:00;7.82;;;4.75;;
52674;SDS011;38569;52.722;6.440;2023-04-10T13:30:29;5.68;;;4.68;;
52674;SDS011;38569;52.722;6.440;2023-04-10T13:32:55;7.45;;;4.43;;
52674;SDS011;38569;52.722;6.440;2023-04-10T13:35:21;8.82;;;4.93;;
52674;SDS011;38569;52.722;6.440;2023-04-10T13:37:46;10.40;;;5.10;;
52674;SDS011;38569;52.722;6.440;2023-04-10T13:40:12;5.85;;;4.88;;
52674;SDS011;38569;52.722;6.440;2023-04-10T13:42:38;6.53;;;4.85;;
52674;SDS011;38569;52.722;6.440;2023-04-10T13:45:03;5.75;;;4.57;;
52674;SDS011;38569;52.722;6.440;2023-04-10T13:47:29;6.40;;;4.25;;
52674;SDS011;38569;52.722;6.440;2023-04-10T13:49:55;6.78;;;5.28;;
52674;SDS011;38569;52.722;6.440;2023-04-10T13:52:21;5.43;;;4.22;;
52674;SDS011;38569;52.722;6.440;2023-04-10T13:54:46;7.68;;;4.53;;
52674;SDS011;38569;52.722;6.440;2023-04-10T13:57:12;8.07;;;5.03;;
52674;SDS011;38569;52.722;6.440;2023-04-10T13:59:38;6.22;;;4.80;;
52674;SDS011;38569;52.722;6.440;2023-04-10T14:02:03;14.82;;;4.40;;
52674;SDS011;38569;52.722;6.440;2023-04-10T14:04:29;6.93;;;4.93;;
52674;SDS011;38569;52.722;6.440;2023-04-10T14:06:55;5.55;;;4.57;;
52674;SDS011;38569;52.722;6.440;2023-04-10T14:09:24;6.30;;;4.60;;
52674;SDS011;38569;52.722;6.440;2023-04-10T14:11:51;9.55;;;4.93;;
52674;SDS011;38569;52.722;6.440;2023-04-10T14:14:16;7.82;;;5.55;;
52674;SDS011;38569;52.722;6.440;2023-04-10T14:16:42;8.00;;;5.00;;
52674;SDS011;38569;52.722;6.440;2023-04-10T14:19:08;5.95;;;5.10;;
52674;SDS011;38569;52.722;6.440;2023-04-10T14:21:33;6.15;;;4.78;;
52674;SDS011;38569;52.722;6.440;2023-04-10T14:24:00;8.88;;;4.80;;
52674;SDS011;38569;52.722;6.440;2023-04-10T14:26:25;6.47;;;5.00;;
52674;SDS011;38569;52.722;6.440;2023-04-10T14:28:51;7.20;;;4.70;;
52674;SDS011;38569;52.722;6.440;2023-04-10T14:31:17;6.38;;;4.20;;
52674;SDS011;38569;52.722;6.440;2023-04-10T14:33:43;5.78;;;4.45;;
52674;SDS011;38569;52.722;6.440;2023-04-10T14:36:09;8.82;;;4.60;;
52674;SDS011;38569;52.722;6.440;2023-04-10T14:38:35;5.85;;;4.55;;
52674;SDS011;38569;52.722;6.440;2023-04-10T14:41:01;7.22;;;4.88;;
52674;SDS011;38569;52.722;6.440;2023-04-10T14:43:27;13.20;;;4.75;;
52674;SDS011;38569;52.722;6.440;2023-04-10T14:45:53;6.90;;;4.53;;
52674;SDS011;38569;52.722;6.440;2023-04-10T14:48:18;8.00;;;4.85;;
52674;SDS011;38569;52.722;6.440;2023-04-10T14:50:45;6.20;;;4.07;;
52674;SDS011;38569;52.722;6.440;2023-04-10T14:53:11;6.93;;;4.65;;
52674;SDS011;38569;52.722;6.440;2023-04-10T14:55:37;6.53;;;4.90;;
52674;SDS011;38569;52.722;6.440;2023-04-10T14:58:03;5.63;;;4.90;;
52674;SDS011;38569;52.722;6.440;2023-04-10T15:00:30;6.78;;;4.85;;
52674;SDS011;38569;52.722;6.440;2023-04-10T15:02:57;6.07;;;4.47;;
52674;SDS011;38569;52.722;6.440;2023-04-10T15:05:23;6.03;;;4.68;;
52674;SDS011;38569;52.722;6.440;2023-04-10T15:07:50;9.43;;;5.25;;
52674;SDS011;38569;52.722;6.440;2023-04-10T15:10:15;7.47;;;5.07;;
52674;SDS011;38569;52.722;6.440;2023-04-10T15:12:41;7.22;;;5.05;;
52674;SDS011;38569;52.722;6.440;2023-04-10T15:15:07;6.82;;;5.20;;
52674;SDS011;38569;52.722;6.440;2023-04-10T15:17:33;6.32;;;4.80;;